Time;durP1;ratioP1;P1;durP2;ratioP2;P2;SDS_P1;SDS_P2;PMS_P1;PMS_P2;Temp;Humidity;BMP_temperature;BMP_pressure;BME280_temperature;BME280_humidity;BME280_pressure;Samples;Min_cycle;Max_cycle;Signal;HPM_P1;HPM_P2
2023/03/06 00:01:47;;;;;;;76.80;29.20;;;;;;;-3.67;100.00;99580.02;219653;1269;139287;-84
2023/03/06 00:06:48;;;;;;;78.90;31.70;;;;;;;-3.70;100.00;99572.67;219185;1266;140002;-84
2023/03/06 00:11:48;;;;;;;77.90;30.90;;;;;;;-3.79;100.00;99570.77;219835;1266;139593;-84
2023/03/06 00:16:48;;;;;;;71.90;30.40;;;;;;;-3.84;100.00;99562.29;219109;1266;140038;-84
2023/03/06 00:21:49;;;;;;;77.30;32.50;;;;;;;-3.88;100.00;99556.31;219811;1270;139705;-84
2023/03/06 00:26:49;;;;;;;97.70;41.40;;;;;;;-3.94;100.00;99552.47;219307;1266;139876;-84
2023/03/06 00:31:50;;;;;;;91.50;38.60;;;;;;;-3.97;100.00;99553.13;219874;1266;139795;-84
2023/03/06 00:36:50;;;;;;;80.40;32.30;;;;;;;-4.02;100.00;99556.56;219368;1267;140058;-84
2023/03/06 00:41:51;;;;;;;79.10;34.40;;;;;;;-4.09;100.00;99544.91;220024;1265;139621;-84
2023/03/06 00:46:51;;;;;;;81.10;33.00;;;;;;;-4.14;100.00;99537.01;219101;1266;140297;-84
2023/03/06 00:51:51;;;;;;;79.00;30.40;;;;;;;-4.18;100.00;99528.94;219918;1270;140095;-84
2023/03/06 00:56:52;;;;;;;80.90;29.90;;;;;;;-4.23;100.00;99524.80;219381;1266;139982;-83
2023/03/06 01:01:53;;;;;;;75.20;30.20;;;;;;;-4.26;100.00;99519.10;219890;1270;139782;-84
2023/03/06 01:06:53;;;;;;;82.10;32.50;;;;;;;-4.29;100.00;99515.83;219394;1269;139387;-84
2023/03/06 01:11:54;;;;;;;84.40;32.50;;;;;;;-4.34;100.00;99511.88;219817;1266;139658;-83
2023/03/06 01:16:55;;;;;;;80.10;31.60;;;;;;;-4.37;100.00;99507.43;219278;1269;139918;-84
2023/03/06 01:21:55;;;;;;;79.50;32.90;;;;;;;-4.37;100.00;99498.58;220157;1266;139569;-82
2023/03/06 01:26:55;;;;;;;69.60;29.10;;;;;;;-4.35;100.00;99497.29;219375;1267;140037;-84
2023/03/06 01:31:55;;;;;;;72.30;29.70;;;;;;;-4.31;100.00;99494.31;219839;1266;139433;-83
2023/03/06 01:36:56;;;;;;;76.20;34.10;;;;;;;-4.30;100.00;99491.48;219395;1269;140569;-83
2023/03/06 01:41:56;;;;;;;71.70;31.60;;;;;;;-4.29;100.00;99484.33;219897;1270;140075;-83
2023/03/06 01:46:56;;;;;;;76.60;32.10;;;;;;;-4.25;100.00;99477.37;219517;1267;139813;-83
2023/03/06 01:52:09;;;;;;;81.00;34.00;;;;;;;-4.21;100.00;99478.52;219838;1266;139604;-84
2023/03/06 01:57:26;;;;;;;73.90;32.10;;;;;;;-4.17;100.00;99473.00;219196;1266;139862;-83
2023/03/06 02:02:26;;;;;;;87.20;33.20;;;;;;;-4.14;100.00;99462.77;219834;1269;99207;-83
2023/03/06 02:07:27;;;;;;;70.70;28.90;;;;;;;-4.15;100.00;99456.60;219278;1265;139901;-83
2023/03/06 02:12:27;;;;;;;70.60;29.70;;;;;;;-4.13;100.00;99452.75;219866;1266;139543;-83
2023/03/06 02:17:28;;;;;;;68.40;27.60;;;;;;;-4.11;100.00;99447.00;219398;1272;139914;-83
2023/03/06 02:22:42;;;;;;;72.80;29.50;;;;;;;-4.07;100.00;99440.19;219884;1266;139524;-83
2023/03/06 02:27:42;;;;;;;72.20;28.10;;;;;;;-4.06;100.00;99433.83;219384;1269;140210;-83
2023/03/06 02:32:43;;;;;;;64.90;27.00;;;;;;;-4.03;100.00;99429.13;219989;1270;99186;-83
2023/03/06 02:37:44;;;;;;;61.50;26.40;;;;;;;-3.98;100.00;99423.70;219451;1267;140155;-83
2023/03/06 02:42:51;;;;;;;57.00;25.50;;;;;;;-3.94;100.00;99418.54;219847;1269;139443;-83
2023/03/06 02:47:52;;;;;;;66.00;25.00;;;;;;;-3.88;100.00;99420.32;219387;1271;140254;-83
2023/03/06 02:52:52;;;;;;;61.30;25.50;;;;;;;-3.83;100.00;99422.35;219880;1269;140239;-83
2023/03/06 02:57:52;;;;;;;58.40;24.90;;;;;;;-3.77;100.00;99414.80;219399;1270;139796;-83
2023/03/06 03:02:53;;;;;;;69.70;26.20;;;;;;;-3.72;100.00;99416.31;220293;1266;97901;-83
2023/03/06 03:07:53;;;;;;;56.10;23.90;;;;;;;-3.66;100.00;99406.15;219276;1267;139624;-83
2023/03/06 03:12:54;;;;;;;57.90;23.30;;;;;;;-3.61;100.00;99397.52;219722;1267;140284;-83
2023/03/06 03:17:54;;;;;;;48.10;20.50;;;;;;;-3.55;100.00;99399.51;219177;1270;139890;-83
2023/03/06 03:22:55;;;;;;;44.20;19.00;;;;;;;-3.47;100.00;99397.10;219880;1266;140167;-82
2023/03/06 03:27:55;;;;;;;52.30;19.00;;;;;;;-3.38;100.00;99398.19;219170;1267;140413;-81
2023/03/06 03:32:55;;;;;;;41.40;17.40;;;;;;;-3.27;100.00;99393.54;219829;1265;97971;-82
2023/03/06 03:37:56;;;;;;;46.60;18.10;;;;;;;-3.17;100.00;99387.72;219163;1267;140437;-82
2023/03/06 03:42:56;;;;;;;37.20;15.00;;;;;;;-3.08;100.00;99387.25;219916;1270;139930;-82
2023/03/06 03:47:56;;;;;;;36.20;15.00;;;;;;;-3.01;100.00;99380.08;219333;1270;139715;-83
2023/03/06 03:52:57;;;;;;;33.90;15.40;;;;;;;-2.94;100.00;99376.23;219854;1273;139513;-82
2023/03/06 03:57:57;;;;;;;35.70;14.00;;;;;;;-2.87;100.00;99377.09;219212;1266;140118;-83
2023/03/06 04:02:58;;;;;;;39.50;16.10;;;;;;;-2.80;100.00;99379.14;219905;1267;98013;-83
2023/03/06 04:08:00;;;;;;;33.50;15.20;;;;;;;-2.73;100.00;99374.23;219271;1266;140009;-84
2023/03/06 04:13:00;;;;;;;36.50;14.80;;;;;;;-2.67;100.00;99362.73;219883;1267;141573;-83
2023/03/06 04:18:01;;;;;;;38.00;14.80;;;;;;;-2.60;100.00;99356.81;219319;1270;139824;-84
2023/03/06 04:23:01;;;;;;;37.20;15.30;;;;;;;-2.53;100.00;99353.98;219634;1267;140678;-84
2023/03/06 04:28:02;;;;;;;26.20;12.20;;;;;;;-2.49;100.00;99342.17;219203;1267;141201;-83
2023/03/06 04:33:03;;;;;;;27.50;12.50;;;;;;;-2.40;100.00;99337.87;219823;1265;139504;-83
2023/03/06 04:38:04;;;;;;;31.00;14.20;;;;;;;-2.33;100.00;99327.84;219401;1267;139919;-83
2023/03/06 04:43:05;;;;;;;24.30;12.50;;;;;;;-2.25;100.00;99327.27;219874;1267;139685;-83
2023/03/06 04:48:05;;;;;;;35.20;13.80;;;;;;;-2.18;100.00;99327.06;219374;1266;139892;-83
2023/03/06 04:53:07;;;;;;;30.70;15.10;;;;;;;-2.10;100.00;99323.34;219739;1270;140361;-83
2023/03/06 04:58:10;;;;;;;33.10;15.00;;;;;;;-2.02;100.00;99317.89;219356;1266;140128;-83
2023/03/06 05:03:11;;;;;;;34.80;14.80;;;;;;;-1.94;100.00;99315.52;219567;1268;140115;-83
2023/03/06 05:08:14;;;;;;;31.40;14.90;;;;;;;-1.87;100.00;99310.74;219244;1267;139853;-83
2023/03/06 05:13:14;;;;;;;33.70;14.50;;;;;;;-1.82;100.00;99304.33;219831;1266;253632;-84
2023/03/06 05:18:15;;;;;;;28.00;13.60;;;;;;;-1.73;100.00;99301.54;219202;1267;139776;-84
2023/03/06 05:23:16;;;;;;;28.30;13.20;;;;;;;-1.68;100.00;99292.73;219719;1266;139661;-84
2023/03/06 05:28:16;;;;;;;27.30;11.10;;;;;;;-1.63;100.00;99289.62;219307;1265;139813;-84
2023/03/06 05:33:17;;;;;;;23.70;10.60;;;;;;;-1.56;100.00;99289.75;219945;1270;139545;-83
2023/03/06 05:38:18;;;;;;;24.10;8.80;;;;;;;-1.53;100.00;99291.29;219720;1267;140171;-85
2023/03/06 05:43:18;;;;;;;19.30;8.10;;;;;;;-1.49;100.00;99288.13;219719;1270;140526;-84
2023/03/06 05:48:18;;;;;;;15.00;6.80;;;;;;;-1.46;100.00;99282.23;219239;1269;140132;-85
2023/03/06 05:53:19;;;;;;;15.50;7.20;;;;;;;-1.42;100.00;99279.77;219721;1270;139407;-85
2023/03/06 05:58:19;;;;;;;16.40;6.90;;;;;;;-1.38;100.00;99278.07;219460;1266;139994;-83
2023/03/06 06:03:20;;;;;;;12.10;5.00;;;;;;;-1.35;100.00;99272.81;219833;1266;139367;-84
2023/03/06 06:08:20;;;;;;;12.30;3.90;;;;;;;-1.31;100.00;99271.48;219556;1270;139595;-84
2023/03/06 06:13:21;;;;;;;9.10;3.40;;;;;;;-1.27;100.00;99273.57;219821;1269;139205;-85
2023/03/06 06:18:21;;;;;;;8.80;3.30;;;;;;;-1.23;100.00;99270.01;219252;1267;139228;-85
2023/03/06 06:23:22;;;;;;;12.30;4.00;;;;;;;-1.22;100.00;99269.21;219814;1266;139615;-84
2023/03/06 06:28:22;;;;;;;15.30;5.80;;;;;;;-1.18;100.00;99272.39;219643;1266;139945;-86
2023/03/06 06:33:22;;;;;;;18.40;6.50;;;;;;;-1.13;100.00;99272.56;219952;1265;141442;-86
2023/03/06 06:38:23;;;;;;;14.90;5.80;;;;;;;-1.10;100.00;99270.84;219545;1267;140036;-87
2023/03/06 06:43:23;;;;;;;14.20;4.10;;;;;;;-1.11;100.00;99269.03;219834;1269;140226;-87
2023/03/06 06:48:23;;;;;;;11.50;4.70;;;;;;;-1.04;100.00;99274.68;219338;1265;140128;-86
2023/03/06 06:53:24;;;;;;;25.50;10.90;;;;;;;-1.02;100.00;99268.05;219870;1265;139919;-86
2023/03/06 06:58:25;;;;;;;43.30;17.80;;;;;;;-0.98;100.00;99262.50;219390;1269;141194;-87
2023/03/06 07:03:25;;;;;;;21.80;9.60;;;;;;;-0.92;100.00;99253.68;219990;1265;142766;-87
2023/03/06 07:08:26;;;;;;;17.50;7.00;;;;;;;-0.90;100.00;99253.60;219446;1266;139935;-85
2023/03/06 07:13:26;;;;;;;12.80;5.10;;;;;;;-0.88;100.00;99251.84;219859;1270;139792;-85
2023/03/06 07:18:27;;;;;;;12.00;3.60;;;;;;;-0.84;100.00;99249.90;219856;1269;139383;-86
2023/03/06 07:23:27;;;;;;;10.40;4.50;;;;;;;-0.87;100.00;99252.51;220002;1266;139552;-86
2023/03/06 07:28:28;;;;;;;12.30;4.90;;;;;;;-0.82;100.00;99252.75;219397;1266;140796;-87
2023/03/06 07:33:28;;;;;;;13.20;4.20;;;;;;;-0.76;100.00;99255.00;219963;1265;140253;-86
2023/03/06 07:38:29;;;;;;;11.80;4.10;;;;;;;-0.68;100.00;99263.39;219474;1266;140123;-87
2023/03/06 07:43:30;;;;;;;15.40;5.00;;;;;;;-0.68;100.00;99260.88;219931;1265;139903;-87
2023/03/06 07:48:31;;;;;;;14.00;5.80;;;;;;;-0.67;100.00;99259.80;219672;1265;139695;-88
2023/03/06 07:53:33;;;;;;;15.30;5.80;;;;;;;-0.59;100.00;99259.70;219933;1266;139623;-86
2023/03/06 07:58:39;;;;;;;18.20;7.80;;;;;;;-0.50;100.00;99256.11;219501;1266;142888;-86
2023/03/06 08:03:40;;;;;;;;;;;;;;;-0.43;100.00;99260.90;223725;1265;139433;-86
2023/03/06 08:08:42;;;;;;;12.50;4.40;;;;;;;-0.48;100.00;99261.27;221626;1265;126469;-85
2023/03/06 08:13:43;;;;;;;13.00;5.00;;;;;;;-0.44;100.00;99258.38;219928;1265;139946;-81
2023/03/06 08:18:43;;;;;;;14.90;5.40;;;;;;;-0.35;100.00;99255.39;219498;1269;139846;-81
2023/03/06 08:23:44;;;;;;;14.90;6.80;;;;;;;-0.33;100.00;99250.52;220162;1266;139207;-81
2023/03/06 08:28:45;;;;;;;9.60;3.60;;;;;;;-0.29;100.00;99250.33;219572;1266;139698;-80
2023/03/06 08:33:46;;;;;;;11.30;4.20;;;;;;;-0.35;100.00;99250.05;220088;1266;140725;-82
2023/03/06 08:38:46;;;;;;;8.80;3.30;;;;;;;-0.35;100.00;99252.68;219854;1266;139394;-82
2023/03/06 08:43:47;;;;;;;7.80;3.00;;;;;;;-0.32;100.00;99252.02;220443;1266;138959;-81
2023/03/06 08:48:48;;;;;;;10.60;3.70;;;;;;;-0.29;100.00;99248.20;219664;1265;139616;-81
2023/03/06 08:53:49;;;;;;;15.90;5.60;;;;;;;-0.22;100.00;99250.45;220382;1265;139127;-82
2023/03/06 08:58:51;;;;;;;12.60;5.30;;;;;;;-0.14;100.00;99252.43;219660;1270;139408;-81
2023/03/06 09:03:57;;;;;;;10.90;3.60;;;;;;;0.00;100.00;99253.61;220472;1269;139360;-82
2023/03/06 09:08:57;;;;;;;8.70;3.80;;;;;;;0.08;100.00;99255.33;219589;1269;139204;-83
2023/03/06 09:13:58;;;;;;;11.60;4.40;;;;;;;0.17;100.00;99265.21;220310;1265;138553;-82
2023/03/06 09:18:58;;;;;;;10.20;4.50;;;;;;;0.24;100.00;99270.26;219506;1265;139749;-82
2023/03/06 09:23:59;;;;;;;16.50;6.60;;;;;;;0.19;100.00;99276.27;220000;1265;139067;-83
2023/03/06 09:28:59;;;;;;;17.00;7.20;;;;;;;0.27;100.00;99279.47;219662;1265;139197;-82
2023/03/06 09:34:00;;;;;;;16.10;6.30;;;;;;;0.40;100.00;99280.45;220251;1265;139444;-82
2023/03/06 09:39:00;;;;;;;23.00;10.50;;;;;;;0.52;100.00;99279.23;219894;1266;139451;-82
2023/03/06 09:44:14;;;;;;;16.20;7.40;;;;;;;0.71;100.00;99275.23;220614;1265;97970;-83
2023/03/06 09:49:24;;;;;;;21.40;10.60;;;;;;;0.90;100.00;99268.65;219932;1266;139383;-82
2023/03/06 09:54:45;;;;;;;13.60;7.40;;;;;;;1.06;100.00;99263.18;220546;1269;137937;-83
2023/03/06 09:59:49;;;;;;;16.90;9.20;;;;;;;1.18;100.00;99261.67;219943;1266;139449;-83
2023/03/06 10:04:54;;;;;;;20.10;10.10;;;;;;;1.39;100.00;99263.73;220504;1265;139217;-83
2023/03/06 10:10:03;;;;;;;23.30;12.40;;;;;;;1.52;100.00;99261.47;219919;1266;139745;-84
2023/03/06 10:15:15;;;;;;;24.10;13.30;;;;;;;1.59;100.00;99262.84;220240;1266;139489;-83
2023/03/06 10:20:22;;;;;;;24.10;12.60;;;;;;;1.74;100.00;99259.70;219641;1265;138877;-84
2023/03/06 10:25:28;;;;;;;25.90;14.00;;;;;;;1.89;100.00;99258.55;219995;1269;139838;-84
2023/03/06 10:30:44;;;;;;;26.80;13.00;;;;;;;2.00;100.00;99260.21;219485;1265;139680;-84
2023/03/06 10:35:53;;;;;;;31.30;14.60;;;;;;;2.01;100.00;99256.70;220267;1269;140617;-85
2023/03/06 10:41:05;;;;;;;30.50;15.90;;;;;;;2.07;100.00;99257.25;223096;1266;140356;-86
2023/03/06 10:46:08;;;;;;;28.00;15.00;;;;;;;2.14;100.00;99257.95;223219;1265;140093;-88
2023/03/06 10:51:19;;;;;;;29.80;14.60;;;;;;;2.19;100.00;99259.40;223728;1265;139893;-85
2023/03/06 10:56:27;;;;;;;27.40;13.70;;;;;;;2.22;100.00;99253.80;223281;1265;140212;-86
2023/03/06 11:01:29;;;;;;;30.40;14.40;;;;;;;2.24;100.00;99249.53;223557;1265;139553;-87
2023/03/06 11:06:33;;;;;;;27.70;14.20;;;;;;;2.30;100.00;99246.83;223156;1265;139857;-87
2023/03/06 11:11:33;;;;;;;28.40;14.20;;;;;;;2.30;100.00;99242.08;223680;1265;139389;-87
2023/03/06 11:16:34;;;;;;;25.90;14.70;;;;;;;2.27;100.00;99243.70;223139;1265;141346;-87
2023/03/06 11:21:36;;;;;;;24.80;13.70;;;;;;;2.36;100.00;99236.10;223803;1265;139454;-88
2023/03/06 11:26:50;;;;;;;24.10;13.60;;;;;;;2.43;100.00;99238.52;223301;1265;139913;-88
2023/03/06 11:31:58;;;;;;;24.00;13.20;;;;;;;2.43;100.00;99237.35;223556;1265;139505;-87
2023/03/06 11:37:05;;;;;;;24.70;13.80;;;;;;;2.44;100.00;99230.70;220058;1267;139501;-88
2023/03/06 11:42:27;;;;;;;21.00;12.20;;;;;;;2.47;100.00;99230.94;220036;1268;139409;-89
2023/03/06 11:47:34;;;;;;;18.80;10.60;;;;;;;2.43;100.00;99232.23;219540;1266;139930;-88
2023/03/06 11:52:47;;;;;;;22.40;11.80;;;;;;;2.37;100.00;99231.09;219952;1266;140573;-89
2023/03/06 11:58:09;;;;;;;19.10;9.90;;;;;;;2.31;100.00;99233.18;219476;1265;140131;-89
2023/03/06 12:03:19;;;;;;;16.40;9.30;;;;;;;2.24;100.00;99232.55;220050;1265;139834;-89
2023/03/06 12:08:40;;;;;;;18.80;10.40;;;;;;;2.21;100.00;99232.86;219705;1265;139598;-88
2023/03/06 12:14:05;;;;;;;19.90;10.40;;;;;;;2.21;100.00;99234.77;220055;1265;139169;-89
2023/03/06 12:19:18;;;;;;;18.00;9.10;;;;;;;2.18;100.00;99231.86;219574;1265;140054;-89
2023/03/06 12:24:41;;;;;;;18.30;8.70;;;;;;;2.21;100.00;99233.41;220349;1270;139240;-89
2023/03/06 12:30:24;;;;;;;15.60;8.10;;;;;;;2.22;100.00;99231.64;220085;1268;139801;-90
2023/03/06 12:35:34;;;;;;;15.80;7.80;;;;;;;2.22;100.00;99228.00;220158;1266;140972;-90
2023/03/06 12:40:56;;;;;;;17.10;8.80;;;;;;;2.19;100.00;99231.33;219541;1266;139746;-89
2023/03/06 12:46:08;;;;;;;14.30;7.40;;;;;;;2.14;100.00;99231.59;219448;1265;139886;-89
2023/03/06 12:51:13;;;;;;;17.00;8.80;;;;;;;2.12;100.00;99234.80;220121;1265;139218;-90
2023/03/06 12:56:17;;;;;;;15.10;8.20;;;;;;;2.12;100.00;99237.29;219911;1266;139534;-90
2023/03/06 13:01:42;;;;;;;14.40;7.30;;;;;;;2.10;100.00;99234.11;220012;1265;139735;-92
2023/03/06 13:07:21;;;;;;;16.30;7.90;;;;;;;2.12;100.00;99233.11;219201;1271;139471;-90
2023/03/06 13:12:38;;;;;;;13.50;7.30;;;;;;;2.14;100.00;99232.37;223670;1266;139926;-89
2023/03/06 13:17:39;;;;;;;14.40;6.90;;;;;;;2.04;100.00;99230.27;222388;1265;139712;-87
2023/03/06 13:22:42;;;;;;;14.80;7.50;;;;;;;2.01;100.00;99227.36;220528;1266;139953;-88
2023/03/06 13:27:54;;;;;;;14.00;6.80;;;;;;;2.02;100.00;99229.42;219730;1266;139244;-88
2023/03/06 13:32:55;;;;;;;13.70;7.30;;;;;;;1.99;100.00;99222.90;220092;1270;105067;-88
2023/03/06 13:37:56;;;;;;;15.00;6.90;;;;;;;2.01;100.00;99219.41;219537;1266;140161;-88
2023/03/06 13:43:06;;;;;;;13.40;8.00;;;;;;;2.01;100.00;99221.65;219981;1266;138938;-88
2023/03/06 13:48:20;;;;;;;15.10;7.00;;;;;;;2.05;100.00;99220.45;219459;1266;139651;-88
2023/03/06 13:53:27;;;;;;;12.30;6.00;;;;;;;2.07;100.00;99214.52;219946;1266;139070;-87
2023/03/06 13:58:38;;;;;;;12.20;6.20;;;;;;;2.08;100.00;99215.79;219447;1270;139557;-88
2023/03/06 14:03:47;;;;;;;10.90;5.50;;;;;;;2.12;100.00;99216.48;219976;1265;138945;-88
2023/03/06 14:08:48;;;;;;;16.30;7.10;;;;;;;2.13;100.00;99218.30;219477;1269;139433;-87
2023/03/06 14:13:53;;;;;;;22.20;9.00;;;;;;;2.16;100.00;99214.11;220712;1266;139159;-88
2023/03/06 14:18:56;;;;;;;15.90;8.20;;;;;;;2.18;100.00;99215.64;219617;1270;138996;-86
2023/03/06 14:23:59;;;;;;;51.20;20.20;;;;;;;2.19;100.00;99218.45;219988;1265;138961;-87
2023/03/06 14:29:02;;;;;;;22.40;9.60;;;;;;;2.24;100.00;99212.45;219709;1266;139891;-86
2023/03/06 14:34:05;;;;;;;17.10;9.10;;;;;;;2.26;100.00;99216.54;220285;1266;140178;-86
2023/03/06 14:39:16;;;;;;;17.30;10.30;;;;;;;2.24;100.00;99217.34;223133;1266;139923;-86
2023/03/06 14:44:18;;;;;;;15.30;9.00;;;;;;;2.28;100.00;99218.70;223828;1265;108512;-86
2023/03/06 14:49:21;;;;;;;18.20;9.30;;;;;;;2.33;100.00;99216.16;219971;1266;139125;-87
2023/03/06 14:54:26;;;;;;;15.40;7.60;;;;;;;2.40;100.00;99219.13;219875;1265;139311;-87
2023/03/06 14:59:29;;;;;;;15.30;6.90;;;;;;;2.41;100.00;99218.62;223173;1265;139621;-87
2023/03/06 15:04:50;;;;;;;18.60;8.20;;;;;;;2.41;99.92;99216.05;221032;1269;139646;-85
2023/03/06 15:09:52;;;;;;;15.00;7.90;;;;;;;2.39;99.88;99217.42;219319;1269;138956;-86
2023/03/06 15:15:01;;;;;;;17.00;8.70;;;;;;;2.38;99.62;99213.57;220159;1266;98395;-86
2023/03/06 15:20:05;;;;;;;16.70;8.40;;;;;;;2.31;99.13;99212.00;219368;1266;138846;-86
2023/03/06 15:25:14;;;;;;;16.90;8.60;;;;;;;2.24;99.27;99214.02;219802;1266;139252;-86
2023/03/06 15:30:29;;;;;;;21.10;11.30;;;;;;;2.23;99.35;99208.24;219557;1265;139788;-86
2023/03/06 15:35:31;;;;;;;18.40;9.70;;;;;;;2.20;99.16;99215.07;219905;1268;138999;-87
2023/03/06 15:40:32;;;;;;;17.60;8.30;;;;;;;2.12;98.81;99215.79;223135;1265;139407;-87
2023/03/06 15:51:54;;;;;;;16.90;8.40;;;;;;;2.05;99.05;99220.58;221629;1273;249295;-87
2023/03/06 15:56:55;;;;;;;19.70;9.80;;;;;;;2.03;99.11;99214.56;223153;1269;138702;-86
2023/03/06 16:01:56;;;;;;;25.90;16.00;;;;;;;1.96;98.69;99219.81;223749;1266;139344;-86
2023/03/06 16:06:57;;;;;;;122.20;44.70;;;;;;;1.92;98.58;99217.84;223197;1269;139936;-86
2023/03/06 16:11:58;;;;;;;54.90;24.00;;;;;;;1.84;98.68;99225.09;223763;1266;139185;-86
2023/03/06 16:16:58;;;;;;;82.70;39.40;;;;;;;1.78;98.80;99215.80;223159;1266;139263;-86
2023/03/06 16:21:58;;;;;;;51.90;28.70;;;;;;;1.65;98.75;99208.63;223780;1266;139042;-86
2023/03/06 16:27:00;;;;;;;26.30;15.10;;;;;;;1.56;98.87;99218.30;223291;1265;140093;-86
2023/03/06 16:32:01;;;;;;;23.70;13.70;;;;;;;1.50;99.01;99221.91;223494;1269;138761;-85
2023/03/06 16:37:02;;;;;;;27.90;15.30;;;;;;;1.45;99.12;99220.77;219556;1265;139356;-86
2023/03/06 16:42:02;;;;;;;32.10;18.40;;;;;;;1.40;99.52;99229.94;220080;1266;139432;-86
2023/03/06 16:47:03;;;;;;;31.60;17.30;;;;;;;1.32;99.17;99226.15;219889;1269;139529;-87
2023/03/06 16:52:03;;;;;;;31.80;17.50;;;;;;;1.17;99.60;99225.10;219909;1270;139197;-85
2023/03/06 16:57:04;;;;;;;30.50;17.90;;;;;;;1.04;99.42;99222.79;219499;1270;139163;-86
2023/03/06 17:02:05;;;;;;;29.40;17.70;;;;;;;0.92;99.86;99228.53;219984;1271;138666;-85
2023/03/06 17:07:05;;;;;;;38.90;20.90;;;;;;;0.81;99.98;99237.73;219418;1269;140409;-85
2023/03/06 17:12:06;;;;;;;41.50;24.40;;;;;;;0.69;100.00;99241.39;219574;1269;415302;-86
2023/03/06 17:17:06;;;;;;;48.10;26.90;;;;;;;0.60;100.00;99249.68;219512;1266;139350;-86
2023/03/06 17:22:07;;;;;;;44.00;25.20;;;;;;;0.46;100.00;99244.84;219796;1266;139259;-85
2023/03/06 17:27:07;;;;;;;41.20;24.30;;;;;;;0.28;100.00;99246.05;219465;1266;139874;-85
2023/03/06 17:32:07;;;;;;;36.90;22.10;;;;;;;0.17;100.00;99243.95;219939;1269;98058;-85
2023/03/06 17:37:08;;;;;;;45.60;23.60;;;;;;;0.06;100.00;99247.16;219256;1266;139865;-84
2023/03/06 17:42:08;;;;;;;46.60;25.30;;;;;;;-0.07;100.00;99247.17;220022;1269;139361;-85
2023/03/06 17:47:09;;;;;;;49.90;23.80;;;;;;;-0.21;100.00;99250.39;219541;1265;139991;-85
2023/03/06 17:52:10;;;;;;;41.90;20.70;;;;;;;-0.34;100.00;99256.05;220035;1269;139387;-85
2023/03/06 17:57:10;;;;;;;37.90;20.90;;;;;;;-0.47;100.00;99261.23;219447;1266;140217;-83
2023/03/06 18:02:11;;;;;;;38.70;20.10;;;;;;;-0.58;100.00;99259.57;220173;1266;98183;-86
2023/03/06 18:07:11;;;;;;;36.40;19.70;;;;;;;-0.70;100.00;99249.88;219376;1269;140672;-88
2023/03/06 18:12:12;;;;;;;41.30;22.40;;;;;;;-0.83;100.00;99254.05;219907;1270;139514;-85
2023/03/06 18:17:12;;;;;;;61.40;28.90;;;;;;;-0.94;100.00;99244.52;219335;1268;139940;-85
2023/03/06 18:22:12;;;;;;;74.20;37.40;;;;;;;-1.06;100.00;99251.80;220258;1269;139612;-85
2023/03/06 18:27:13;;;;;;;76.40;36.40;;;;;;;-1.18;100.00;99256.19;219585;1265;140246;-85
2023/03/06 18:32:13;;;;;;;95.50;44.90;;;;;;;-1.28;100.00;99255.23;220595;1270;98044;-86
2023/03/06 18:37:14;;;;;;;93.90;41.00;;;;;;;-1.37;100.00;99257.92;219711;1268;139932;-86
2023/03/06 18:42:14;;;;;;;99.40;43.60;;;;;;;-1.46;100.00;99263.48;220212;1269;140046;-86
2023/03/06 18:47:14;;;;;;;101.50;45.30;;;;;;;-1.56;100.00;99265.34;219689;1266;140297;-86
2023/03/06 18:52:15;;;;;;;104.30;45.30;;;;;;;-1.65;100.00;99263.73;220457;1266;140357;-85
2023/03/06 18:57:15;;;;;;;131.20;56.40;;;;;;;-1.74;100.00;99266.52;219555;1267;140173;-85
2023/03/06 19:02:16;;;;;;;136.20;59.30;;;;;;;-1.81;100.00;99267.17;220223;1266;98452;-85
2023/03/06 19:07:17;;;;;;;158.80;62.50;;;;;;;-1.89;100.00;99268.45;219677;1268;139957;-84
2023/03/06 19:12:18;;;;;;;145.00;61.60;;;;;;;-1.96;100.00;99269.94;220257;1270;140103;-84
2023/03/06 19:17:18;;;;;;;133.80;55.90;;;;;;;-2.02;100.00;99270.23;219723;1266;140560;-84
2023/03/06 19:22:18;;;;;;;137.40;57.70;;;;;;;-2.09;100.00;99270.38;220384;1267;140675;-85
2023/03/06 19:27:19;;;;;;;134.80;55.20;;;;;;;-2.17;100.00;99274.21;219424;1266;140171;-84
2023/03/06 19:32:20;;;;;;;132.30;57.80;;;;;;;-2.23;100.00;99280.73;220384;1269;97936;-85
2023/03/06 19:37:21;;;;;;;125.80;51.60;;;;;;;-2.30;100.00;99281.44;219272;1269;140305;-85
2023/03/06 19:42:21;;;;;;;113.80;46.70;;;;;;;-2.38;100.00;99285.00;220333;1270;141191;-84
2023/03/06 19:47:22;;;;;;;101.00;42.90;;;;;;;-2.47;100.00;99291.84;219375;1271;140649;-85
2023/03/06 19:52:25;;;;;;;82.90;34.50;;;;;;;-2.53;100.00;99297.04;220116;1270;139928;-84
2023/03/06 19:57:26;;;;;;;71.20;33.40;;;;;;;-2.58;100.00;99296.21;219403;1269;140347;-84
2023/03/06 20:02:27;;;;;;;63.40;26.90;;;;;;;-2.61;100.00;99293.36;220305;1269;97987;-84
2023/03/06 20:07:27;;;;;;;61.40;27.00;;;;;;;-2.67;100.00;99290.87;219655;1269;139508;-83
2023/03/06 20:12:28;;;;;;;58.50;26.30;;;;;;;-2.74;100.00;99288.59;220129;1269;138794;-83
2023/03/06 20:17:28;;;;;;;61.90;29.90;;;;;;;-2.81;100.00;99287.54;219387;1269;140155;-83
2023/03/06 20:22:32;;;;;;;83.80;35.80;;;;;;;-2.91;100.00;99288.17;219693;1267;140698;-84
2023/03/06 20:27:32;;;;;;;66.90;31.70;;;;;;;-3.00;100.00;99286.01;219303;1267;161861;-82
2023/03/06 20:32:33;;;;;;;67.10;30.50;;;;;;;-3.07;100.00;99288.70;219931;1269;97951;-84
2023/03/06 20:37:33;;;;;;;71.60;31.00;;;;;;;-3.14;100.00;99294.25;219410;1269;140382;-83
2023/03/06 20:42:33;;;;;;;99.40;39.90;;;;;;;-3.20;100.00;99291.21;219796;1270;140167;-83
2023/03/06 20:47:34;;;;;;;96.00;36.50;;;;;;;-3.28;100.00;99290.37;219310;1270;140498;-82
2023/03/06 20:52:34;;;;;;;86.50;37.60;;;;;;;-3.35;100.00;99286.34;219812;1270;141432;-83
2023/03/06 20:57:35;;;;;;;78.50;35.30;;;;;;;-3.42;100.00;99290.41;219320;1267;140126;-83
2023/03/06 21:02:35;;;;;;;81.00;35.10;;;;;;;-3.49;100.00;99289.91;220497;1267;98091;-83
2023/03/06 21:07:36;;;;;;;85.20;36.10;;;;;;;-3.59;100.00;99287.45;219353;1267;139774;-82
2023/03/06 21:12:36;;;;;;;83.10;36.50;;;;;;;-3.64;100.00;99289.88;220052;1267;139547;-83
2023/03/06 21:17:37;;;;;;;79.40;33.00;;;;;;;-3.70;100.00;99291.42;219277;1270;140879;-82
2023/03/06 21:22:37;;;;;;;70.80;33.20;;;;;;;-3.76;100.00;99286.59;220047;1266;139461;-82
2023/03/06 21:27:38;;;;;;;79.30;33.80;;;;;;;-3.84;100.00;99287.69;219383;1267;139896;-81
2023/03/06 21:32:39;;;;;;;82.70;34.60;;;;;;;-3.92;100.00;99282.42;220014;1265;111254;-81
2023/03/06 21:37:40;;;;;;;84.20;36.50;;;;;;;-3.98;100.00;99281.98;217511;1270;140284;-82
2023/03/06 21:42:40;;;;;;;80.60;35.60;;;;;;;-4.04;100.00;99280.38;217799;1268;140333;-81
2023/03/06 21:47:40;;;;;;;80.60;35.40;;;;;;;-4.10;100.00;99272.58;217258;1270;139867;-80
2023/03/06 21:52:41;;;;;;;81.20;35.80;;;;;;;-4.14;100.00;99277.30;218866;1268;140243;-80
2023/03/06 21:57:41;;;;;;;87.30;39.30;;;;;;;-4.20;100.00;99275.38;217611;1267;140196;-80
2023/03/06 22:02:43;;;;;;;94.20;40.40;;;;;;;-4.29;100.00;99275.19;218068;1269;98044;-80
2023/03/06 22:07:43;;;;;;;82.00;38.90;;;;;;;-4.35;100.00;99278.05;217454;1267;139515;-80
2023/03/06 22:12:45;;;;;;;90.20;38.60;;;;;;;-4.40;100.00;99277.72;217923;1269;139365;-81
2023/03/06 22:17:47;;;;;;;89.60;39.10;;;;;;;-4.45;100.00;99277.25;217356;1270;140511;-81
2023/03/06 22:22:48;;;;;;;83.60;37.80;;;;;;;-4.49;100.00;99278.41;217961;1270;139496;-82
2023/03/06 22:27:48;;;;;;;94.70;40.40;;;;;;;-4.57;100.00;99274.18;217395;1267;140608;-82
2023/03/06 22:32:51;;;;;;;94.50;43.10;;;;;;;-4.64;100.00;99271.25;219959;1269;99032;-82
2023/03/06 22:37:52;;;;;;;94.80;40.70;;;;;;;-4.71;100.00;99274.30;219343;1267;139733;-82
2023/03/06 22:42:52;;;;;;;98.50;44.70;;;;;;;-4.77;100.00;99269.19;220599;1267;139439;-81